createdAt,value
2018-11-20T00:03:06.640Z,7.80
2018-11-20T00:06:19.626Z,9.40
2018-11-20T00:09:41.318Z,14.03
2018-11-20T00:12:54.310Z,12.33
2018-11-20T00:16:06.006Z,6.55
2018-11-20T00:19:17.570Z,11.57
2018-11-20T00:22:31.526Z,10.48
2018-11-20T00:25:40.549Z,7.17
2018-11-20T00:28:48.268Z,10.75
2018-11-20T00:32:00.164Z,9.05
2018-11-20T00:35:21.689Z,12.13
2018-11-20T00:38:30.888Z,10.45
2018-11-20T00:41:45.897Z,10.85
2018-11-20T00:44:55.234Z,11.25
2018-11-20T00:48:04.157Z,12.13
2018-11-20T00:51:13.393Z,11.33
2018-11-20T00:54:40.548Z,8.98
2018-11-20T00:57:49.883Z,9.75
2018-11-20T01:01:14.791Z,9.85
2018-11-20T01:04:27.197Z,11.12
2018-11-20T01:07:34.658Z,12.40
2018-11-20T01:10:43.204Z,11.90
2018-11-20T01:13:54.934Z,10.03
2018-11-20T01:17:07.514Z,11.22
2018-11-20T01:20:22.799Z,10.28
2018-11-20T01:23:35.374Z,10.30
2018-11-20T01:26:59.377Z,12.15
2018-11-20T01:30:14.465Z,10.90
2018-11-20T01:33:32.601Z,12.63
2018-11-20T01:36:39.978Z,11.30
2018-11-20T01:39:48.928Z,11.22
2018-11-20T01:43:04.383Z,11.48
2018-11-20T01:46:22.037Z,9.65
2018-11-20T01:49:29.354Z,9.55
2018-11-20T01:52:36.383Z,9.43
2018-11-20T01:55:50.962Z,7.75
2018-11-20T01:59:06.145Z,6.45
2018-11-20T02:02:15.591Z,11.25
2018-11-20T02:05:30.237Z,11.43
2018-11-20T02:08:36.430Z,10.78
2018-11-20T02:11:57.048Z,9.03
2018-11-20T02:15:04.738Z,8.43
2018-11-20T02:18:13.748Z,11.30
2018-11-20T02:21:38.541Z,11.85
2018-11-20T02:24:56.275Z,9.00
2018-11-20T02:28:05.408Z,7.30
2018-11-20T02:31:13.827Z,6.80
2018-11-20T02:34:25.792Z,10.80
2018-11-20T02:37:33.389Z,10.32
2018-11-20T02:40:41.424Z,8.68
2018-11-20T02:43:50.865Z,10.30
2018-11-20T02:47:15.157Z,11.45
2018-11-20T02:50:26.951Z,13.88
2018-11-20T02:53:34.729Z,13.18
2018-11-20T02:56:59.039Z,12.85
2018-11-20T03:00:08.280Z,10.90
2018-11-20T03:03:20.177Z,7.97
2018-11-20T03:06:40.934Z,7.45
2018-11-20T03:09:50.221Z,10.05
2018-11-20T03:13:11.634Z,17.60
2018-11-20T03:16:32.403Z,12.13
2018-11-20T03:19:57.958Z,12.23
2018-11-20T03:23:10.162Z,14.93
2018-11-20T03:26:22.262Z,12.30
2018-11-20T03:29:50.402Z,13.03
2018-11-20T03:33:11.249Z,12.98
2018-11-20T03:36:23.126Z,14.43
2018-11-20T03:39:32.501Z,14.20
2018-11-20T03:42:47.026Z,14.50
2018-11-20T03:46:11.317Z,16.50
2018-11-20T03:49:23.378Z,17.05
2018-11-20T03:52:32.326Z,18.62
2018-11-20T03:55:46.796Z,16.07
2018-11-20T03:58:56.260Z,16.15
2018-11-20T04:02:14.800Z,16.23
2018-11-20T04:05:31.012Z,15.63
2018-11-20T04:08:40.350Z,15.72
2018-11-20T04:11:58.193Z,20.85
2018-11-20T04:15:06.713Z,13.43
2018-11-20T04:18:29.045Z,13.68
2018-11-20T04:21:53.010Z,28.95
2018-11-20T04:25:11.067Z,16.52
2018-11-20T04:28:20.058Z,12.13
2018-11-20T04:31:36.723Z,13.35
2018-11-20T04:34:48.794Z,15.40
2018-11-20T04:37:57.703Z,18.02
2018-11-20T04:41:22.084Z,22.35
2018-11-20T04:44:30.528Z,16.48
2018-11-20T04:47:58.731Z,14.95
2018-11-20T04:51:07.956Z,20.57
2018-11-20T04:54:26.101Z,18.75
2018-11-20T04:57:38.361Z,18.67
2018-11-20T05:00:47.263Z,15.65
2018-11-20T05:03:54.756Z,11.35
2018-11-20T05:07:10.380Z,14.85
2018-11-20T05:10:18.551Z,14.75
2018-11-20T05:13:30.445Z,13.55
2018-11-20T05:16:42.315Z,20.08
2018-11-20T05:19:50.326Z,14.05
2018-11-20T05:23:02.857Z,17.87
2018-11-20T05:26:21.800Z,16.52
2018-11-20T05:29:34.487Z,15.50
2018-11-20T05:32:30.338Z,20.60
2018-11-20T05:35:39.367Z,16.52
2018-11-20T05:38:46.965Z,22.75
2018-11-20T05:41:59.884Z,19.85
2018-11-20T05:45:08.733Z,10.82
2018-11-20T05:48:05.457Z,18.42
2018-11-20T05:51:14.687Z,17.25
2018-11-20T05:54:30.170Z,25.52
2018-11-20T05:57:39.176Z,12.93
2018-11-20T06:00:59.709Z,19.82
2018-11-20T06:04:08.508Z,24.98
2018-11-20T06:07:30.663Z,26.33
2018-11-20T06:10:38.974Z,16.20
2018-11-20T06:14:00.884Z,17.85
2018-11-20T06:17:16.800Z,22.35
2018-11-20T06:20:35.043Z,12.95
2018-11-20T06:23:42.902Z,15.00
2018-11-20T06:26:50.942Z,21.95
2018-11-20T06:30:18.998Z,23.38
2018-11-20T06:33:26.563Z,23.57
2018-11-20T06:36:46.273Z,22.62
2018-11-20T06:39:53.612Z,18.15
2018-11-20T06:43:08.569Z,20.85
2018-11-20T06:46:24.562Z,20.12
2018-11-20T06:49:43.015Z,22.52
2018-11-20T06:52:56.427Z,19.75
2018-11-20T06:56:23.791Z,20.37
2018-11-20T06:59:48.301Z,18.30
2018-11-20T07:02:57.838Z,16.37
2018-11-20T07:06:08.389Z,15.28
2018-11-20T07:09:15.900Z,18.37
2018-11-20T07:12:23.835Z,20.68
2018-11-20T07:15:31.952Z,22.93
2018-11-20T07:18:40.044Z,26.45
2018-11-20T07:21:58.442Z,21.62
2018-11-20T07:28:41.213Z,24.70
2018-11-20T07:31:39.220Z,18.07
2018-11-20T07:34:48.834Z,20.52
2018-11-20T07:38:01.240Z,18.67
2018-11-20T07:41:10.266Z,16.90
2018-11-20T07:44:19.476Z,24.45
2018-11-20T07:47:34.267Z,25.97
2018-11-20T07:50:46.267Z,23.60
2018-11-20T07:53:55.266Z,17.90
2018-11-20T07:57:11.194Z,18.32
2018-11-20T08:00:23.600Z,23.70
2018-11-20T08:03:32.389Z,20.80
2018-11-20T08:06:41.764Z,21.55
2018-11-20T08:10:09.233Z,26.80
2018-11-20T08:13:32.285Z,17.73
2018-11-20T08:16:45.436Z,24.50
2018-11-20T08:19:57.753Z,26.02
2018-11-20T08:23:19.349Z,20.17
2018-11-20T08:26:32.529Z,24.20
2018-11-20T08:29:44.880Z,19.92
2018-11-20T08:32:53.599Z,17.87
2018-11-20T08:36:21.146Z,14.35
2018-11-20T08:39:36.338Z,17.92
2018-11-20T08:42:52.334Z,21.05
2018-11-20T08:46:17.439Z,17.52
2018-11-20T08:49:45.112Z,17.12
2018-11-20T08:52:52.690Z,17.17
2018-11-20T08:56:00.203Z,19.30
2018-11-20T08:59:22.029Z,27.00
2018-11-20T09:02:31.412Z,23.27
2018-11-20T09:05:52.071Z,28.17
2018-11-20T09:09:10.321Z,17.07
2018-11-20T09:12:18.019Z,29.10
2018-11-20T09:15:27.248Z,19.30
2018-11-20T09:18:34.845Z,21.87
2018-11-20T09:21:57.395Z,24.82
2018-11-20T09:25:12.468Z,17.65
2018-11-20T09:28:39.722Z,23.38
2018-11-20T09:32:01.164Z,21.55
2018-11-20T09:35:09.573Z,16.62
2018-11-20T09:38:27.273Z,19.57
2018-11-20T09:41:36.321Z,23.50
2018-11-20T09:45:03.383Z,18.37
2018-11-20T09:48:12.513Z,27.50
2018-11-20T09:51:24.688Z,20.50
2018-11-20T09:54:36.614Z,32.45
2018-11-20T09:58:02.028Z,24.60
2018-11-20T10:01:11.367Z,21.25
2018-11-20T10:04:21.018Z,18.92
2018-11-20T10:07:36.081Z,15.53
2018-11-20T10:10:44.815Z,20.82
2018-11-20T10:13:53.207Z,17.05
2018-11-20T10:17:11.671Z,19.32
2018-11-20T10:20:30.330Z,22.80
2018-11-20T10:23:51.577Z,17.37
2018-11-20T10:27:09.685Z,33.18
2018-11-20T10:30:17.691Z,19.80
2018-11-20T10:33:29.691Z,47.30
2018-11-20T10:36:37.577Z,22.70
2018-11-20T10:39:58.301Z,23.40
2018-11-20T10:43:07.957Z,21.12
2018-11-20T10:46:21.218Z,22.90
2018-11-20T10:49:39.010Z,19.95
2018-11-20T10:52:50.842Z,17.82
2018-11-20T10:56:09.339Z,18.62
2018-11-20T10:59:18.493Z,19.35
2018-11-20T11:02:26.300Z,29.27
2018-11-20T11:05:33.975Z,23.47
2018-11-20T11:08:41.998Z,18.70
2018-11-20T11:11:54.153Z,26.85
2018-11-20T11:15:13.553Z,21.62
2018-11-20T11:18:29.810Z,22.32
2018-11-20T11:21:51.482Z,20.10
2018-11-20T11:25:00.917Z,19.70
2018-11-20T11:28:25.009Z,22.62
2018-11-20T11:31:37.334Z,31.20
2018-11-20T11:34:46.469Z,19.57
2018-11-20T11:38:08.367Z,18.27
2018-11-20T11:41:23.266Z,18.12
2018-11-20T11:44:32.603Z,15.78
2018-11-20T11:47:42.069Z,22.62
2018-11-20T11:50:51.075Z,24.40
2018-11-20T11:54:03.051Z,24.57
2018-11-20T11:57:29.102Z,17.62
2018-11-20T12:00:48.645Z,28.87
2018-11-20T12:04:16.231Z,19.23
2018-11-20T12:07:24.151Z,16.85
2018-11-20T12:10:36.291Z,28.67
2018-11-20T12:13:54.297Z,18.05
2018-11-20T12:17:05.858Z,22.45
2018-11-20T12:20:21.364Z,27.02
2018-11-20T12:23:29.162Z,16.73
2018-11-20T12:26:37.068Z,14.15
2018-11-20T12:29:49.275Z,24.35
2018-11-20T12:33:13.664Z,16.82
2018-11-20T12:36:32.841Z,17.00
2018-11-20T12:39:53.022Z,17.32
2018-11-20T12:43:01.035Z,16.75
2018-11-20T12:46:35.253Z,15.85
2018-11-20T12:49:56.594Z,15.80
2018-11-20T12:53:04.464Z,23.62
2018-11-20T12:56:11.810Z,17.32
2018-11-20T12:59:23.763Z,22.90
2018-11-20T13:02:38.222Z,23.98
2018-11-20T13:05:47.454Z,36.90
2018-11-20T13:09:06.223Z,17.60
2018-11-20T13:12:13.786Z,23.73
2018-11-20T13:15:32.058Z,21.93
2018-11-20T13:18:54.559Z,33.02
2018-11-20T13:22:09.842Z,10.58
2018-11-20T13:25:30.910Z,14.10
2018-11-20T13:28:38.797Z,21.73
2018-11-20T13:31:57.923Z,8.58
2018-11-20T13:35:07.234Z,34.10
2018-11-20T13:38:31.331Z,30.68
2018-11-20T13:41:41.850Z,15.10
2018-11-20T13:44:54.362Z,39.40
2018-11-20T13:48:04.214Z,21.02
2018-11-20T13:51:18.963Z,19.30
2018-11-20T13:54:43.425Z,23.12
2018-11-20T13:57:51.455Z,36.40
2018-11-20T14:00:59.558Z,38.05
2018-11-20T14:04:08.337Z,19.45
2018-11-20T14:07:26.368Z,21.07
2018-11-20T14:10:41.419Z,22.32
2018-11-20T14:13:53.829Z,33.05
2018-11-20T14:17:01.307Z,45.67
2018-11-20T14:20:22.440Z,33.85
2018-11-20T14:23:31.541Z,25.88
2018-11-20T14:26:37.863Z,41.55
2018-11-20T14:29:45.834Z,33.23
2018-11-20T14:32:54.158Z,33.50
2018-11-20T14:36:03.355Z,38.38
2018-11-20T14:39:12.527Z,35.95
2018-11-20T14:42:24.896Z,42.38
2018-11-20T14:45:46.532Z,29.00
2018-11-20T14:48:58.152Z,41.75
2018-11-20T14:52:06.365Z,47.35
2018-11-20T14:55:14.490Z,37.98
2018-11-20T14:58:22.439Z,36.68
2018-11-20T15:01:49.460Z,36.20
2018-11-20T15:05:04.089Z,33.78
2018-11-20T15:08:16.086Z,25.40
2018-11-20T15:11:37.300Z,31.73
2018-11-20T15:14:54.383Z,24.10
2018-11-20T15:18:12.606Z,44.67
2018-11-20T15:21:34.089Z,21.37
2018-11-20T15:24:46.192Z,43.30
2018-11-20T15:27:54.573Z,39.38
2018-11-20T15:31:06.613Z,31.57
2018-11-20T15:34:16.357Z,18.82
2018-11-20T15:37:33.135Z,22.95
2018-11-20T15:40:47.919Z,43.05
2018-11-20T15:44:15.706Z,22.93
2018-11-20T15:47:27.506Z,35.80
2018-11-20T15:50:46.051Z,37.45
2018-11-20T15:54:07.679Z,30.88
2018-11-20T15:57:32.454Z,39.15
2018-11-20T16:00:42.019Z,20.48
2018-11-20T16:04:00.438Z,28.87
2018-11-20T16:07:15.627Z,28.70
2018-11-20T16:10:37.067Z,37.98
2018-11-20T16:13:46.947Z,26.77
2018-11-20T16:16:56.421Z,22.75
2018-11-20T16:20:04.081Z,29.82
2018-11-20T16:23:31.717Z,39.05
2018-11-20T16:26:44.040Z,49.97
2018-11-20T16:29:51.596Z,38.95
2018-11-20T16:32:59.226Z,31.05
2018-11-20T16:36:08.437Z,44.30
2018-11-20T16:39:16.370Z,39.70
2018-11-20T16:42:32.239Z,40.87
2018-11-20T16:45:40.567Z,41.45
2018-11-20T16:48:56.867Z,44.95
2018-11-20T16:52:12.247Z,30.88
2018-11-20T16:55:33.435Z,44.35
2018-11-20T16:58:41.294Z,25.92
2018-11-20T17:01:58.076Z,36.95
2018-11-20T17:05:19.499Z,40.45
2018-11-20T17:08:31.912Z,47.10
2018-11-20T17:11:46.980Z,30.97
2018-11-20T17:14:57.242Z,42.80
2018-11-20T17:18:05.146Z,30.20
2018-11-20T17:21:14.286Z,27.07
2018-11-20T17:24:22.582Z,22.45
2018-11-20T17:27:38.174Z,24.60
2018-11-20T17:30:51.914Z,24.40
2018-11-20T17:34:09.957Z,22.17
2018-11-20T17:37:31.598Z,24.20
2018-11-20T17:40:53.404Z,36.33
2018-11-20T17:44:01.295Z,41.58
2018-11-20T17:47:13.233Z,33.50
2018-11-20T17:50:34.311Z,25.37
2018-11-20T17:53:43.317Z,43.55
2018-11-20T17:56:58.635Z,32.98
2018-11-20T18:00:10.761Z,37.40
2018-11-20T18:03:27.750Z,38.78
2018-11-20T18:06:32.014Z,53.90
2018-11-20T18:09:56.160Z,42.55
2018-11-20T18:13:08.425Z,40.80
2018-11-20T18:16:16.385Z,53.65
2018-11-20T18:19:43.093Z,46.30
2018-11-20T18:23:01.285Z,21.87
2018-11-20T18:26:09.138Z,29.12
2018-11-20T18:29:26.975Z,20.80
2018-11-20T18:32:54.425Z,50.50
2018-11-20T18:36:18.979Z,36.65
2018-11-20T18:39:40.171Z,30.12
2018-11-20T18:43:44.514Z,52.13
2018-11-20T18:46:52.550Z,44.38
2018-11-20T18:50:07.129Z,44.40
2018-11-20T18:53:18.152Z,22.93
2018-11-20T18:56:32.487Z,26.23
2018-11-20T18:59:39.069Z,23.65
2018-11-20T19:03:05.010Z,40.25
2018-11-20T19:06:13.096Z,29.55
2018-11-20T19:09:21.579Z,21.87
2018-11-20T19:12:41.935Z,38.20
2018-11-20T19:15:53.030Z,33.25
2018-11-20T19:19:13.141Z,31.00
2018-11-20T19:22:29.930Z,22.67
2018-11-20T19:25:36.541Z,18.95
2018-11-20T19:28:57.110Z,27.32
2018-11-20T19:31:57.741Z,22.82
2018-11-20T19:35:08.359Z,43.63
2018-11-20T19:38:15.140Z,31.33
2018-11-20T19:41:36.675Z,31.75
2018-11-20T19:44:43.330Z,53.48
2018-11-20T19:47:50.157Z,48.15
2018-11-20T19:50:57.875Z,33.70
2018-11-20T19:54:07.914Z,18.42
2018-11-20T19:57:27.880Z,33.30
2018-11-20T20:00:48.081Z,43.83
2018-11-20T20:03:56.323Z,24.25
2018-11-20T20:07:07.323Z,44.30
2018-11-20T20:10:30.968Z,20.20
2018-11-20T20:13:42.048Z,48.75
2018-11-20T20:17:05.699Z,26.00
2018-11-20T20:20:19.686Z,59.25
2018-11-20T20:23:39.603Z,26.05
2018-11-20T20:26:46.318Z,48.65
2018-11-20T20:29:56.995Z,51.40
2018-11-20T20:33:05.100Z,47.67
2018-11-20T20:36:13.250Z,25.48
2018-11-20T20:39:39.539Z,36.03
2018-11-20T20:42:46.082Z,27.30
2018-11-20T20:45:53.085Z,49.75
2018-11-20T20:49:01.199Z,36.60
2018-11-20T20:52:04.327Z,41.73
2018-11-20T20:55:13.314Z,25.40
2018-11-20T20:58:21.398Z,29.87
2018-11-20T21:01:29.260Z,40.17
2018-11-20T21:04:43.569Z,48.48
2018-11-20T21:08:06.938Z,50.80
2018-11-20T21:11:20.987Z,47.50
2018-11-20T21:14:27.934Z,35.85
2018-11-20T21:17:46.561Z,26.40
2018-11-20T21:20:53.306Z,27.73
2018-11-20T21:24:03.967Z,27.50
2018-11-20T21:27:24.552Z,33.23
2018-11-20T21:30:44.947Z,33.53
2018-11-20T21:33:54.134Z,37.80
2018-11-20T21:37:05.051Z,32.10
2018-11-20T21:40:28.502Z,35.40
2018-11-20T21:43:48.312Z,23.18
2018-11-20T21:47:03.199Z,31.48
2018-11-20T21:50:29.388Z,44.53
2018-11-20T21:53:37.431Z,40.92
2018-11-20T21:56:44.288Z,29.72
2018-11-20T21:59:53.614Z,41.90
2018-11-20T22:03:00.052Z,23.75
2018-11-20T22:06:11.114Z,25.10
2018-11-20T22:09:28.338Z,22.67
2018-11-20T22:12:48.364Z,46.35
2018-11-20T22:15:55.137Z,49.27
2018-11-20T22:19:03.222Z,38.23
2018-11-20T22:22:29.153Z,49.42
2018-11-20T22:25:55.968Z,22.67
2018-11-20T22:29:12.665Z,29.13
2018-11-20T22:32:19.685Z,28.47
2018-11-20T22:35:26.558Z,18.05
2018-11-20T22:38:52.532Z,46.92
2018-11-20T22:42:06.501Z,20.48
2018-11-20T22:45:13.047Z,32.35
2018-11-20T22:48:38.986Z,43.15
2018-11-20T22:51:47.031Z,44.48
2018-11-20T22:55:01.094Z,27.32
2018-11-20T22:58:09.047Z,41.90
2018-11-20T23:01:17.136Z,17.92
2018-11-20T23:04:23.788Z,25.95
2018-11-20T23:07:30.688Z,28.70
2018-11-20T23:10:37.235Z,36.80
2018-11-20T23:13:41.657Z,41.77
2018-11-20T23:16:46.041Z,36.53
2018-11-20T23:19:50.710Z,25.25
2018-11-20T23:22:55.417Z,39.40
2018-11-20T23:26:00.619Z,38.42
2018-11-20T23:29:04.986Z,24.40
2018-11-20T23:32:09.622Z,42.45
2018-11-20T23:35:14.706Z,22.30
2018-11-20T23:38:19.245Z,38.73
2018-11-20T23:41:23.740Z,21.57
2018-11-20T23:44:28.111Z,21.60
2018-11-20T23:47:32.684Z,22.70
2018-11-20T23:50:37.034Z,32.40
2018-11-20T23:53:42.346Z,24.55
2018-11-20T23:56:46.698Z,33.25
2018-11-20T23:59:51.312Z,46.73
